Time;durP1;ratioP1;P1;durP2;ratioP2;P2;SDS_P1;SDS_P2;PMS_P1;PMS_P2;Temp;Humidity;BMP_temperature;BMP_pressure;BME280_temperature;BME280_humidity;BME280_pressure;Samples;Min_cycle;Max_cycle;Signal;HPM_P1;HPM_P2
2021/09/28 00:00:35;;;;;;;9.90;2.00;;;;;;;13.09;100.00;101810.81;4993239;28;20100;-78
2021/09/28 00:03:02;;;;;;;6.88;1.70;;;;;;;13.03;100.00;101825.34;4976283;28;20038;-77
2021/09/28 00:05:28;;;;;;;8.43;2.10;;;;;;;13.01;100.00;101829.06;4976027;28;20038;-78
2021/09/28 00:07:54;;;;;;;15.77;2.15;;;;;;;13.02;100.00;101828.94;4959863;28;20042;-79
2021/09/28 00:10:19;;;;;;;9.07;2.00;;;;;;;13.07;100.00;101833.78;4958869;28;20038;-77
2021/09/28 00:12:46;;;;;;;5.90;1.73;;;;;;;13.02;100.00;101836.84;4959526;28;20073;-77
2021/09/28 00:15:12;;;;;;;9.30;2.20;;;;;;;12.96;100.00;101833.91;4975179;28;20096;-79
2021/09/28 00:17:38;;;;;;;11.20;2.42;;;;;;;12.95;100.00;101832.25;4975145;28;20034;-78
2021/09/28 00:20:05;;;;;;;14.35;2.90;;;;;;;12.89;100.00;101828.38;4975307;28;20154;-78
2021/09/28 00:22:31;;;;;;;10.02;2.30;;;;;;;12.83;100.00;101828.91;4991700;28;20084;-80
2021/09/28 00:24:56;;;;;;;14.68;2.40;;;;;;;12.76;100.00;101828.59;4974986;28;20468;-78
2021/09/28 00:27:22;;;;;;;13.07;2.58;;;;;;;12.75;100.00;101832.22;4967336;28;20039;-78
2021/09/28 00:29:47;;;;;;;9.20;2.60;;;;;;;12.73;100.00;101830.66;4975225;28;20042;-78
2021/09/28 00:32:13;;;;;;;6.95;2.55;;;;;;;12.71;100.00;101832.59;4943261;28;20595;-78
2021/09/28 00:34:40;;;;;;;13.80;3.33;;;;;;;12.72;100.00;101842.19;4959142;28;20531;-78
2021/09/28 00:37:06;;;;;;;12.52;3.10;;;;;;;12.88;100.00;101846.94;4992197;28;20038;-78
2021/09/28 00:39:31;;;;;;;15.25;3.35;;;;;;;12.92;100.00;101841.28;4958798;28;20038;-81
2021/09/28 00:41:56;;;;;;;18.92;4.13;;;;;;;12.90;100.00;101840.53;4975117;28;20033;-77
2021/09/28 00:44:30;;;;;;;13.32;3.10;;;;;;;12.88;100.00;101845.13;4975750;28;20041;-79
2021/09/28 00:46:56;;;;;;;11.13;2.80;;;;;;;12.83;100.00;101847.34;4975203;28;20030;-76
2021/09/28 00:49:21;;;;;;;14.32;2.92;;;;;;;12.72;100.00;101842.19;4958890;28;20045;-79
2021/09/28 00:51:46;;;;;;;11.45;2.58;;;;;;;12.60;100.00;101846.69;4959145;28;20129;-77
2021/09/28 00:54:12;;;;;;;11.20;3.10;;;;;;;12.63;100.00;101856.97;4975289;28;20034;-78
2021/09/28 00:56:38;;;;;;;18.52;3.55;;;;;;;12.57;100.00;101860.13;4964818;28;20412;-76
2021/09/28 00:59:05;;;;;;;7.68;2.90;;;;;;;12.50;100.00;101862.44;4975088;28;20034;-76
2021/09/28 01:01:32;;;;;;;11.43;3.03;;;;;;;12.45;100.00;101869.88;4975243;28;20054;-79
2021/09/28 01:03:58;;;;;;;12.00;3.35;;;;;;;12.41;100.00;101871.97;4975065;28;20069;-77
2021/09/28 01:06:23;;;;;;;13.77;2.60;;;;;;;12.39;100.00;101866.00;4971637;28;20038;-80
2021/09/28 01:08:49;;;;;;;11.55;3.10;;;;;;;12.31;100.00;101875.50;4939862;28;20041;-79
2021/09/28 01:11:14;;;;;;;13.48;3.28;;;;;;;12.29;100.00;101877.44;4971724;28;20030;-80
2021/09/28 01:13:41;;;;;;;11.30;2.70;;;;;;;12.27;100.00;101880.19;4955784;28;20038;-76
2021/09/28 01:16:09;;;;;;;13.38;3.10;;;;;;;12.27;100.00;101895.97;4991263;28;20042;-80
2021/09/28 01:18:37;;;;;;;17.75;3.10;;;;;;;12.22;100.00;101890.28;4974236;28;20039;-79
2021/09/28 01:21:04;;;;;;;10.52;2.90;;;;;;;12.21;100.00;101902.59;4958654;28;20080;-78
2021/09/28 01:23:30;;;;;;;9.45;2.92;;;;;;;12.25;100.00;101895.28;4974932;28;20042;-80
2021/09/28 01:25:55;;;;;;;10.77;2.72;;;;;;;12.24;100.00;101896.22;4990950;28;20034;-78
2021/09/28 01:28:21;;;;;;;10.07;3.03;;;;;;;12.37;100.00;101901.28;4974560;28;20042;-78
2021/09/28 01:30:46;;;;;;;15.23;3.40;;;;;;;12.34;100.00;101901.53;4973880;28;20544;-79
2021/09/28 01:33:15;;;;;;;13.63;3.00;;;;;;;12.35;100.00;101897.97;4990589;28;20504;-77
2021/09/28 01:35:41;;;;;;;17.50;4.88;;;;;;;12.33;100.00;101905.97;4966226;28;20038;-78
2021/09/28 01:38:07;;;;;;;19.05;4.65;;;;;;;12.31;100.00;101907.09;4974565;28;20560;-77
2021/09/28 01:40:36;;;;;;;14.35;4.47;;;;;;;12.37;100.00;101909.19;4974543;28;20030;-76
2021/09/28 01:43:12;;;;;;;16.25;4.40;;;;;;;12.26;100.00;101910.09;4965641;28;20046;-78
2021/09/28 01:45:39;;;;;;;14.07;4.90;;;;;;;12.29;100.00;101911.66;4985287;28;20030;-78
2021/09/28 01:48:08;;;;;;;19.77;5.55;;;;;;;12.24;100.00;101912.88;4980686;28;20045;-79
2021/09/28 01:50:35;;;;;;;10.50;5.30;;;;;;;12.21;100.00;101915.75;4971208;28;20572;-78
2021/09/28 01:53:01;;;;;;;16.10;6.25;;;;;;;12.22;100.00;101913.94;4941384;28;20034;-77
2021/09/28 01:55:26;;;;;;;16.00;5.45;;;;;;;12.23;100.00;101915.63;4954512;28;20035;-77
2021/09/28 01:57:59;;;;;;;13.73;5.80;;;;;;;12.18;100.00;101918.63;4970765;28;20053;-78
2021/09/28 02:00:26;;;;;;;15.75;6.00;;;;;;;12.09;100.00;101908.88;4970948;28;20042;-79
2021/09/28 02:02:52;;;;;;;17.65;6.28;;;;;;;12.04;100.00;101914.53;4955039;28;20058;-78
2021/09/28 02:05:18;;;;;;;14.32;5.93;;;;;;;12.02;100.00;101915.63;4971032;28;20437;-78
2021/09/28 02:07:44;;;;;;;16.75;5.57;;;;;;;11.93;100.00;101911.13;4954956;28;20669;-79
2021/09/28 02:10:11;;;;;;;16.17;5.13;;;;;;;11.88;100.00;101908.81;4954641;28;20031;-77
2021/09/28 02:12:37;;;;;;;14.35;5.28;;;;;;;11.83;100.00;101900.50;4970789;28;20517;-79
2021/09/28 02:15:03;;;;;;;15.98;5.13;;;;;;;11.79;100.00;101906.94;4973129;28;20038;-79
2021/09/28 02:17:28;;;;;;;12.25;5.00;;;;;;;11.73;100.00;101913.53;4991505;28;20030;-79
2021/09/28 02:19:54;;;;;;;10.68;5.10;;;;;;;11.61;100.00;101907.50;4981075;28;20044;-78
2021/09/28 02:22:19;;;;;;;13.57;4.97;;;;;;;11.60;100.00;101916.38;4958036;28;20129;-78
2021/09/28 02:24:45;;;;;;;16.10;5.30;;;;;;;11.58;100.00;101923.50;4975203;28;20045;-77
2021/09/28 02:27:10;;;;;;;11.23;4.68;;;;;;;11.57;100.00;101921.03;4973750;28;20397;-80
2021/09/28 02:29:36;;;;;;;10.25;4.97;;;;;;;11.52;100.00;101923.19;4973297;28;20177;-79
2021/09/28 02:32:01;;;;;;;18.25;5.13;;;;;;;11.47;100.00;101929.66;4973812;28;20085;-79
2021/09/28 02:34:27;;;;;;;11.05;4.63;;;;;;;11.47;100.00;101932.28;4974068;28;20042;-78
2021/09/28 02:36:52;;;;;;;13.05;4.50;;;;;;;11.49;100.00;101934.78;4973782;28;20056;-79
2021/09/28 02:39:18;;;;;;;14.77;5.28;;;;;;;11.50;100.00;101939.91;4973573;28;20408;-79
2021/09/28 02:41:44;;;;;;;20.73;5.40;;;;;;;11.54;100.00;101929.97;4957702;28;20038;-78
2021/09/28 02:44:10;;;;;;;11.52;4.53;;;;;;;11.50;100.00;101931.19;4973331;28;20373;-78
2021/09/28 02:46:35;;;;;;;10.48;4.35;;;;;;;11.45;100.00;101933.34;4973412;28;20113;-79
2021/09/28 02:49:02;;;;;;;14.20;4.80;;;;;;;11.42;100.00;101944.94;4973074;28;20065;-79
2021/09/28 02:51:27;;;;;;;9.88;4.53;;;;;;;11.34;100.00;101938.63;4957246;28;20042;-78
2021/09/28 02:53:52;;;;;;;14.70;4.40;;;;;;;11.30;100.00;101933.63;4957303;28;20420;-78
2021/09/28 02:56:18;;;;;;;13.82;5.47;;;;;;;11.26;100.00;101940.09;4973279;28;20053;-78
2021/09/28 02:58:43;;;;;;;11.70;3.85;;;;;;;11.24;100.00;101944.59;4973997;28;20030;-80
2021/09/28 03:01:09;;;;;;;9.38;3.88;;;;;;;11.22;100.00;101941.25;4958023;28;20068;-79
2021/09/28 03:03:34;;;;;;;11.18;3.75;;;;;;;11.18;100.00;101931.97;4973503;28;20464;-77
2021/09/28 03:06:00;;;;;;;15.02;4.00;;;;;;;11.16;100.00;101946.19;5006747;28;20042;-79
2021/09/28 03:08:25;;;;;;;14.50;4.00;;;;;;;11.12;100.00;101950.84;4974657;28;20456;-78
2021/09/28 03:10:51;;;;;;;10.05;3.78;;;;;;;10.98;100.00;101930.06;4992105;28;20038;-77
2021/09/28 03:13:16;;;;;;;12.32;4.20;;;;;;;11.02;100.00;101942.00;4962161;28;20536;-79
2021/09/28 03:15:42;;;;;;;14.88;4.28;;;;;;;10.94;100.00;101947.84;4995349;28;20389;-79
2021/09/28 03:18:07;;;;;;;14.40;4.50;;;;;;;10.90;100.00;101964.78;4956815;28;20065;-78
2021/09/28 03:20:33;;;;;;;21.38;4.20;;;;;;;10.85;100.00;101944.16;4989099;28;20412;-77
2021/09/28 03:22:58;;;;;;;14.15;3.67;;;;;;;10.86;100.00;101964.19;4972691;28;20031;-77
2021/09/28 03:25:24;;;;;;;12.27;3.30;;;;;;;10.85;100.00;101953.81;4972994;28;20045;-79
2021/09/28 03:27:50;;;;;;;17.35;4.05;;;;;;;10.84;100.00;101954.78;4972814;28;20595;-78
2021/09/28 03:30:16;;;;;;;14.98;3.60;;;;;;;10.79;100.00;101955.09;4972584;28;20045;-75
2021/09/28 03:32:41;;;;;;;8.68;3.40;;;;;;;10.85;100.00;101970.41;4972937;28;20042;-78
2021/09/28 03:35:09;;;;;;;13.35;4.05;;;;;;;10.80;100.00;101964.66;4972384;28;20130;-77
2021/09/28 03:37:40;;;;;;;9.27;3.08;;;;;;;10.83;100.00;101976.72;4961523;28;20041;-76
2021/09/28 03:40:07;;;;;;;14.23;3.22;;;;;;;10.81;100.00;101971.59;4956383;28;20026;-76
2021/09/28 03:42:33;;;;;;;13.48;3.85;;;;;;;10.81;100.00;101970.75;4969059;28;20045;-77
2021/09/28 03:44:58;;;;;;;9.23;3.20;;;;;;;10.78;100.00;101973.63;4971541;28;20030;-78
2021/09/28 03:47:24;;;;;;;10.70;3.42;;;;;;;10.80;100.00;101977.78;4957431;28;20101;-77
2021/09/28 03:49:49;;;;;;;12.93;3.20;;;;;;;10.79;100.00;101985.78;4972268;28;20035;-79
2021/09/28 03:52:15;;;;;;;7.40;3.05;;;;;;;10.74;100.00;101990.53;4973448;28;20057;-77
2021/09/28 03:54:40;;;;;;;14.10;3.50;;;;;;;10.69;100.00;101988.28;4972674;28;20641;-77
2021/09/28 03:57:06;;;;;;;12.90;3.40;;;;;;;10.65;100.00;101986.84;4972786;28;20053;-78
2021/09/28 03:59:31;;;;;;;12.38;3.10;;;;;;;10.65;100.00;101995.53;4971950;28;20120;-78
2021/09/28 04:01:56;;;;;;;12.35;3.40;;;;;;;10.59;100.00;101987.31;4956625;28;20050;-78
2021/09/28 04:04:22;;;;;;;13.40;3.50;;;;;;;10.61;100.00;101999.34;4972558;28;20385;-75
2021/09/28 04:06:47;;;;;;;12.38;3.92;;;;;;;10.57;100.00;102005.78;4956379;28;20069;-79
2021/09/28 04:09:13;;;;;;;10.98;3.47;;;;;;;10.50;100.00;102000.16;4975636;28;20519;-78
2021/09/28 04:11:39;;;;;;;13.25;3.63;;;;;;;10.50;100.00;102000.16;4959890;28;20066;-77
2021/09/28 04:14:06;;;;;;;7.70;3.13;;;;;;;10.52;100.00;102011.38;4976023;28;20054;-77
2021/09/28 04:16:32;;;;;;;8.85;3.33;;;;;;;10.48;100.00;101998.59;4964809;28;20045;-79
2021/09/28 04:18:57;;;;;;;10.10;3.00;;;;;;;10.42;100.00;102006.94;4972329;28;20406;-79
2021/09/28 04:21:27;;;;;;;16.13;3.17;;;;;;;10.44;100.00;102012.91;4961924;28;20046;-78
2021/09/28 04:23:52;;;;;;;11.48;3.05;;;;;;;10.38;100.00;102011.56;4983297;28;20030;-78
2021/09/28 04:26:18;;;;;;;12.10;3.97;;;;;;;10.36;100.00;102012.63;4975342;28;20049;-77
2021/09/28 04:28:43;;;;;;;13.60;3.15;;;;;;;10.32;100.00;102014.63;4993345;28;20066;-79
2021/09/28 04:31:12;;;;;;;10.00;3.47;;;;;;;10.31;100.00;102018.22;4975932;28;20049;-80
2021/09/28 04:33:37;;;;;;;6.43;2.90;;;;;;;10.30;100.00;102027.88;4992926;28;20038;-78
2021/09/28 04:36:03;;;;;;;11.00;3.45;;;;;;;10.27;100.00;102035.09;4975439;28;20073;-77
2021/09/28 04:38:28;;;;;;;11.27;3.22;;;;;;;10.21;100.00;102031.16;4976436;28;20104;-77
2021/09/28 04:40:54;;;;;;;12.55;3.35;;;;;;;10.16;100.00;102029.81;4959474;28;20038;-76
2021/09/28 04:43:19;;;;;;;12.18;3.28;;;;;;;10.17;100.00;102037.56;4991990;28;20114;-77
2021/09/28 04:45:45;;;;;;;8.25;3.33;;;;;;;10.16;100.00;102041.13;4991457;28;20038;-79
2021/09/28 04:48:10;;;;;;;7.18;2.97;;;;;;;10.17;100.00;102052.44;4975393;28;20030;-79
2021/09/28 04:50:36;;;;;;;6.57;2.90;;;;;;;10.13;100.00;102052.69;4958697;28;20596;-78
2021/09/28 04:53:01;;;;;;;7.18;2.85;;;;;;;10.08;100.00;102059.22;4959194;28;20038;-75
2021/09/28 04:55:27;;;;;;;16.70;3.40;;;;;;;10.04;100.00;102058.59;4958675;28;20046;-76
2021/09/28 04:57:52;;;;;;;18.48;3.30;;;;;;;10.02;100.00;102064.88;4959040;28;20042;-78
2021/09/28 05:00:18;;;;;;;8.90;3.30;;;;;;;9.99;100.00;102058.09;4990894;28;20031;-78
2021/09/28 05:02:44;;;;;;;12.07;3.08;;;;;;;9.97;100.00;102069.63;4960277;28;20124;-76
2021/09/28 05:05:09;;;;;;;12.20;3.53;;;;;;;9.96;100.00;102078.44;4974998;28;20070;-77
2021/09/28 05:07:35;;;;;;;11.40;2.92;;;;;;;9.96;100.00;102083.66;4958663;28;20084;-79
2021/09/28 05:10:00;;;;;;;7.57;2.78;;;;;;;9.94;100.00;102068.91;4974446;28;20034;-76
2021/09/28 05:12:25;;;;;;;9.05;3.00;;;;;;;10.07;100.00;102076.69;4974841;28;20050;-78
2021/09/28 05:14:51;;;;;;;10.57;3.25;;;;;;;10.12;100.00;102082.47;4942323;28;20463;-78
2021/09/28 05:17:16;;;;;;;6.53;3.00;;;;;;;10.18;100.00;102086.44;4966415;28;20049;-77
2021/09/28 05:19:42;;;;;;;10.50;3.20;;;;;;;10.22;100.00;102082.63;4957343;28;20034;-76
2021/09/28 05:22:07;;;;;;;9.23;2.92;;;;;;;10.24;100.00;102088.59;4974987;28;20046;-76
2021/09/28 05:24:33;;;;;;;9.70;3.35;;;;;;;10.27;100.00;102091.00;4974401;28;20073;-75
2021/09/28 05:26:58;;;;;;;11.25;3.00;;;;;;;10.31;100.00;102086.41;4974753;28;20504;-79
2021/09/28 05:29:24;;;;;;;10.30;3.05;;;;;;;10.33;100.00;102089.75;4990421;28;20092;-78
2021/09/28 05:31:49;;;;;;;11.07;2.80;;;;;;;10.28;100.00;102083.97;4976091;28;20488;-79
2021/09/28 05:34:16;;;;;;;11.27;2.88;;;;;;;10.28;100.00;102095.31;4975914;28;20161;-74
2021/09/28 05:36:42;;;;;;;8.70;3.22;;;;;;;10.25;100.00;102097.31;4960796;28;20122;-78
2021/09/28 05:39:07;;;;;;;11.15;3.13;;;;;;;10.24;100.00;102104.31;4975988;28;20046;-77
2021/09/28 05:41:32;;;;;;;9.60;2.63;;;;;;;10.21;100.00;102095.84;4991044;28;20030;-79
2021/09/28 05:43:58;;;;;;;7.70;2.80;;;;;;;10.20;100.00;102104.69;4966501;28;20096;-78
2021/09/28 05:46:24;;;;;;;12.50;3.10;;;;;;;10.20;100.00;102110.75;4990048;28;20166;-79
2021/09/28 05:48:49;;;;;;;10.23;3.17;;;;;;;10.16;100.00;102104.06;4957093;28;20038;-76
2021/09/28 05:51:17;;;;;;;8.98;2.53;;;;;;;10.21;100.00;102119.44;4984428;28;20401;-76
2021/09/28 05:53:44;;;;;;;6.40;2.85;;;;;;;10.18;100.00;102115.28;4990170;28;20038;-77
2021/09/28 05:56:11;;;;;;;10.57;2.88;;;;;;;10.20;100.00;102118.63;4974003;28;20096;-78
2021/09/28 05:58:36;;;;;;;12.32;2.88;;;;;;;10.21;100.00;102129.94;4990014;28;20042;-79
2021/09/28 06:01:02;;;;;;;14.40;3.10;;;;;;;10.22;100.00;102129.00;4973824;28;20030;-77
2021/09/28 06:03:27;;;;;;;7.40;2.58;;;;;;;10.26;100.00;102133.91;4980701;28;20088;-77
2021/09/28 06:05:53;;;;;;;6.43;2.50;;;;;;;10.25;100.00;102124.38;4973164;28;20416;-77
2021/09/28 06:08:18;;;;;;;11.15;2.38;;;;;;;10.38;100.00;102132.22;4957584;28;20109;-78
2021/09/28 06:10:44;;;;;;;14.57;2.92;;;;;;;10.43;100.00;102137.97;4957295;28;20180;-76
2021/09/28 06:13:10;;;;;;;10.95;2.92;;;;;;;10.57;100.00;102136.13;4941628;28;20416;-77
2021/09/28 06:15:35;;;;;;;10.57;2.92;;;;;;;10.69;100.00;102141.31;4957406;28;20038;-77
2021/09/28 06:18:01;;;;;;;13.15;3.25;;;;;;;10.82;100.00;102143.84;4973271;28;20038;-76
2021/09/28 06:20:26;;;;;;;14.10;2.97;;;;;;;11.00;100.00;102146.91;4974393;28;20117;-77
2021/09/28 06:22:52;;;;;;;6.22;2.90;;;;;;;11.10;100.00;102152.31;4954258;28;20590;-76
2021/09/28 06:25:17;;;;;;;12.55;3.50;;;;;;;11.08;100.00;102146.34;4954014;28;20041;-77
2021/09/28 06:27:43;;;;;;;13.68;3.67;;;;;;;11.00;100.00;102148.69;4970197;28;20043;-77
2021/09/28 06:30:09;;;;;;;13.48;3.28;;;;;;;11.07;100.00;102163.84;4972385;28;20123;-78
2021/09/28 06:32:34;;;;;;;12.40;4.07;;;;;;;11.13;100.00;102167.81;4957875;28;20493;-76
2021/09/28 06:35:00;;;;;;;8.30;2.97;;;;;;;11.15;100.00;102165.94;4957712;28;20054;-79
2021/09/28 06:37:25;;;;;;;16.27;3.60;;;;;;;11.17;100.00;102171.91;4973343;28;20492;-78
2021/09/28 06:39:51;;;;;;;12.32;3.55;;;;;;;11.24;100.00;102169.63;4957144;28;20045;-77
2021/09/28 06:42:16;;;;;;;13.18;4.25;;;;;;;11.31;100.00;102181.38;4958494;28;20034;-77
2021/09/28 06:44:42;;;;;;;9.45;3.90;;;;;;;11.43;100.00;102184.84;4957141;28;20042;-76
2021/09/28 06:47:07;;;;;;;11.55;3.60;;;;;;;11.63;100.00;102176.28;4955542;28;20034;-78
2021/09/28 06:49:33;;;;;;;13.60;4.05;;;;;;;11.83;100.00;102182.63;4994351;28;20034;-77
2021/09/28 06:51:58;;;;;;;13.02;4.03;;;;;;;12.05;100.00;102186.22;4972870;28;20046;-77
2021/09/28 06:54:24;;;;;;;11.45;3.90;;;;;;;12.12;100.00;102173.44;4972732;28;20088;-78
2021/09/28 06:56:50;;;;;;;15.43;4.35;;;;;;;12.09;100.00;102185.00;4973458;28;20116;-77
2021/09/28 06:59:16;;;;;;;8.13;3.35;;;;;;;12.00;100.00;102183.13;4973158;28;20066;-75
2021/09/28 07:01:41;;;;;;;13.55;4.22;;;;;;;11.92;100.00;102183.72;4963489;28;20070;-76
2021/09/28 07:04:07;;;;;;;12.88;3.25;;;;;;;11.94;100.00;102184.47;4950706;28;20046;-80
2021/09/28 07:06:33;;;;;;;7.43;3.30;;;;;;;11.92;100.00;102188.13;4973073;28;20031;-78
2021/09/28 07:09:00;;;;;;;11.05;3.63;;;;;;;11.91;100.00;102189.94;4949652;28;20038;-78
2021/09/28 07:11:25;;;;;;;7.18;3.28;;;;;;;11.87;100.00;102194.56;4960758;28;20082;-78
2021/09/28 07:13:51;;;;;;;8.75;3.40;;;;;;;11.90;100.00;102196.16;4956806;28;20077;-78
2021/09/28 07:16:17;;;;;;;9.02;3.60;;;;;;;11.99;100.00;102195.44;4956944;28;20046;-78
2021/09/28 07:18:43;;;;;;;6.43;3.10;;;;;;;11.95;100.00;102195.81;4973141;28;20034;-78
2021/09/28 07:21:09;;;;;;;12.95;3.28;;;;;;;11.94;100.00;102199.38;4972395;28;20034;-78
2021/09/28 07:23:35;;;;;;;11.25;3.40;;;;;;;11.94;100.00;102194.13;4972948;28;20412;-80
2021/09/28 07:26:00;;;;;;;9.88;3.60;;;;;;;11.99;100.00;102205.94;4972987;28;20034;-77
2021/09/28 07:28:27;;;;;;;7.00;3.40;;;;;;;12.03;100.00;102206.53;4957064;28;20042;-78
2021/09/28 07:30:52;;;;;;;18.25;4.55;;;;;;;12.19;100.00;102200.94;4972737;28;20034;-79
2021/09/28 07:33:19;;;;;;;16.80;3.70;;;;;;;12.30;100.00;102206.19;4956755;28;20042;-78
2021/09/28 07:35:45;;;;;;;9.48;3.88;;;;;;;12.39;100.00;102215.94;4982407;28;20491;-78
2021/09/28 07:38:12;;;;;;;12.30;4.55;;;;;;;12.60;100.00;102213.41;4989214;28;20060;-77
2021/09/28 07:40:40;;;;;;;8.43;4.03;;;;;;;12.75;100.00;102210.47;4972514;28;20596;-77
2021/09/28 07:43:05;;;;;;;9.77;3.78;;;;;;;12.97;100.00;102209.56;4958617;28;20152;-78
2021/09/28 07:45:31;;;;;;;12.40;3.75;;;;;;;13.11;100.00;102209.25;4990598;28;20828;-77
2021/09/28 07:47:57;;;;;;;14.13;3.22;;;;;;;13.20;100.00;102215.56;4976495;28;20046;-79
2021/09/28 07:50:22;;;;;;;12.57;4.03;;;;;;;13.34;100.00;102207.38;4986329;28;20456;-77
2021/09/28 07:52:48;;;;;;;13.80;3.40;;;;;;;13.48;100.00;102219.38;4961090;28;20049;-78
2021/09/28 07:55:13;;;;;;;7.75;3.20;;;;;;;13.61;100.00;102211.28;4976403;28;20117;-77
2021/09/28 07:57:38;;;;;;;12.00;3.70;;;;;;;13.68;100.00;102204.50;4960266;28;20042;-77
2021/09/28 08:00:09;;;;;;;9.90;3.60;;;;;;;13.82;100.00;102213.88;4960038;28;20038;-78
2021/09/28 08:02:41;;;;;;;15.48;3.53;;;;;;;13.89;100.00;102209.75;4960847;28;20045;-77
2021/09/28 08:05:08;;;;;;;11.73;3.95;;;;;;;14.02;100.00;102212.97;4958812;28;20778;-76
2021/09/28 08:07:35;;;;;;;11.30;3.15;;;;;;;14.15;100.00;102211.94;4959827;28;20049;-76
2021/09/28 08:10:00;;;;;;;7.47;2.45;;;;;;;14.26;100.00;102214.47;4974965;28;20030;-79
2021/09/28 08:12:26;;;;;;;7.68;2.75;;;;;;;14.31;100.00;102229.88;4959517;28;20543;-79
2021/09/28 08:14:53;;;;;;;11.68;2.28;;;;;;;14.44;100.00;102217.25;4975915;28;20035;-79
2021/09/28 08:17:19;;;;;;;6.20;2.30;;;;;;;14.47;100.00;102217.00;4983598;28;20039;-77
2021/09/28 08:19:44;;;;;;;8.95;2.30;;;;;;;14.54;100.00;102223.41;4991479;28;20037;-79
2021/09/28 08:22:12;;;;;;;9.32;2.55;;;;;;;14.55;100.00;102206.59;4975921;28;20053;-78
2021/09/28 08:24:42;;;;;;;3.92;2.00;;;;;;;14.70;100.00;102217.63;4980913;28;20046;-76
2021/09/28 08:29:55;;;;;;;4.75;1.83;;;;;;;14.84;100.00;102219.00;4974903;28;20142;-78
2021/09/28 08:32:20;;;;;;;8.40;2.17;;;;;;;14.91;100.00;102221.94;4975087;28;20538;-78
2021/09/28 08:34:46;;;;;;;9.60;2.03;;;;;;;14.88;100.00;102224.84;4973387;28;20899;-79
2021/09/28 08:37:12;;;;;;;6.22;1.85;;;;;;;14.90;100.00;102230.81;4975019;28;20046;-78
2021/09/28 08:39:38;;;;;;;10.50;2.10;;;;;;;14.92;100.00;102229.72;4974929;28;20038;-79
2021/09/28 08:42:04;;;;;;;7.10;1.92;;;;;;;15.03;100.00;102223.47;4959222;28;20042;-78
2021/09/28 08:44:30;;;;;;;5.47;1.48;;;;;;;15.14;100.00;102227.78;4974841;28;20050;-78
2021/09/28 08:46:56;;;;;;;7.97;1.90;;;;;;;15.18;100.00;102231.78;4975053;28;20096;-77
2021/09/28 08:49:22;;;;;;;7.93;2.03;;;;;;;15.19;99.25;102236.94;4974716;28;20065;-79
2021/09/28 08:51:48;;;;;;;10.52;2.22;;;;;;;15.27;97.90;102235.41;4981805;28;20045;-77
2021/09/28 08:54:14;;;;;;;5.68;1.85;;;;;;;15.29;99.47;102221.06;4956728;28;20129;-79
2021/09/28 08:56:40;;;;;;;8.27;1.90;;;;;;;15.37;98.96;102236.25;4973060;28;20106;-76
2021/09/28 08:59:07;;;;;;;5.15;1.90;;;;;;;15.38;100.00;102233.44;4974973;28;20924;-77
2021/09/28 09:01:35;;;;;;;5.38;1.40;;;;;;;15.41;99.33;102240.28;4974595;28;20053;-79
2021/09/28 09:04:17;;;;;;;8.70;1.48;;;;;;;15.54;100.00;102238.16;4974710;28;20046;-78
2021/09/28 09:06:44;;;;;;;4.57;1.40;;;;;;;15.51;100.00;102235.78;4991062;28;20042;-80
2021/09/28 09:09:11;;;;;;;6.18;1.45;;;;;;;15.58;99.15;102238.72;4974170;28;20130;-79
2021/09/28 09:11:42;;;;;;;10.57;1.55;;;;;;;15.63;99.20;102231.16;4974477;28;20038;-78
2021/09/28 09:14:15;;;;;;;4.55;1.30;;;;;;;15.69;100.00;102235.03;4974679;28;20544;-78
2021/09/28 09:16:41;;;;;;;4.05;1.05;;;;;;;15.79;92.28;102225.31;4974668;28;20031;-79
2021/09/28 09:19:16;;;;;;;9.52;1.23;;;;;;;15.92;94.90;102232.94;4974391;28;20099;-79
2021/09/28 09:21:50;;;;;;;6.35;1.02;;;;;;;15.95;95.42;102237.91;4942611;28;20070;-79
2021/09/28 09:24:49;;;;;;;13.65;1.50;;;;;;;15.96;89.82;102231.66;4974217;28;20069;-79
2021/09/28 09:27:28;;;;;;;6.75;1.00;;;;;;;16.00;95.43;102230.38;4974536;28;20086;-78
2021/09/28 09:30:17;;;;;;;7.68;1.50;;;;;;;16.03;94.93;102238.03;4958083;28;20030;-80
2021/09/28 09:32:51;;;;;;;5.90;1.02;;;;;;;16.00;90.67;102238.31;4974503;28;20046;-76
2021/09/28 09:35:29;;;;;;;5.90;1.23;;;;;;;16.07;94.82;102238.56;4974361;28;20501;-78
2021/09/28 09:38:05;;;;;;;7.57;1.00;;;;;;;16.17;85.33;102236.72;4958764;28;20030;-79
2021/09/28 09:40:41;;;;;;;4.25;1.05;;;;;;;16.25;86.04;102239.44;4974123;28;20038;-78
2021/09/28 09:43:08;;;;;;;8.68;1.10;;;;;;;16.40;86.72;102241.59;4969759;28;20042;-80
2021/09/28 09:45:34;;;;;;;3.10;0.95;;;;;;;16.59;86.73;102233.53;4963922;28;20037;-80
2021/09/28 09:48:00;;;;;;;5.20;1.10;;;;;;;16.78;82.58;102234.38;4974504;28;20054;-80
2021/09/28 09:50:30;;;;;;;6.57;0.90;;;;;;;16.93;82.27;102238.19;4969277;28;20630;-78
2021/09/28 09:52:58;;;;;;;3.60;0.98;;;;;;;17.01;81.01;102235.63;4974110;28;20046;-77
2021/09/28 09:55:25;;;;;;;3.72;0.77;;;;;;;17.09;79.34;102238.34;4942275;28;20038;-78
2021/09/28 09:57:52;;;;;;;6.38;0.88;;;;;;;17.25;80.29;102232.34;4957792;28;20034;-79
2021/09/28 10:00:18;;;;;;;6.55;1.20;;;;;;;17.21;77.30;102238.09;4973889;28;20125;-80
2021/09/28 10:02:45;;;;;;;5.32;0.77;;;;;;;17.16;76.43;102235.06;4974688;28;20088;-78
2021/09/28 10:05:10;;;;;;;8.50;0.88;;;;;;;17.13;78.78;102231.72;4974170;28;20527;-80
2021/09/28 10:07:36;;;;;;;3.75;0.70;;;;;;;17.05;82.95;102229.03;4957981;28;20034;-81
2021/09/28 10:10:02;;;;;;;5.15;0.80;;;;;;;16.93;79.11;102244.34;4957222;28;20121;-78
2021/09/28 10:12:38;;;;;;;4.05;0.70;;;;;;;16.91;85.07;102241.00;4957758;28;20046;-80
2021/09/28 10:15:09;;;;;;;3.35;0.60;;;;;;;16.87;73.51;102230.84;4973272;28;20041;-81
2021/09/28 10:17:40;;;;;;;3.00;1.02;;;;;;;16.97;77.00;102236.91;4965924;28;20061;-80
2021/09/28 10:20:08;;;;;;;4.50;0.93;;;;;;;17.12;79.63;102232.75;4957232;28;20142;-81
2021/09/28 10:22:41;;;;;;;4.75;0.93;;;;;;;17.13;83.31;102225.59;4959274;28;20038;-81
2021/09/28 10:25:24;;;;;;;2.35;0.90;;;;;;;16.89;84.58;102228.88;4983156;28;20126;-78
2021/09/28 10:27:53;;;;;;;2.15;0.60;;;;;;;16.89;77.82;102227.06;4973882;28;20046;-80
2021/09/28 10:30:30;;;;;;;2.63;0.68;;;;;;;17.01;78.63;102230.31;4956730;28;20037;-81
2021/09/28 10:32:57;;;;;;;4.18;0.60;;;;;;;17.17;83.57;102223.47;4941262;28;20046;-81
2021/09/28 10:35:24;;;;;;;2.75;0.68;;;;;;;17.46;71.84;102224.03;4973374;28;20034;-78
2021/09/28 10:38:04;;;;;;;1.85;0.50;;;;;;;17.70;70.00;102225.97;4973872;28;20038;-80
2021/09/28 10:40:33;;;;;;;6.18;0.80;;;;;;;17.81;66.84;102221.41;4973067;28;20038;-79
2021/09/28 10:43:02;;;;;;;4.80;0.70;;;;;;;17.48;67.65;102221.22;4973388;28;20578;-78
2021/09/28 10:45:27;;;;;;;3.33;0.77;;;;;;;17.30;77.31;102221.25;4989206;28;20038;-78
2021/09/28 10:47:57;;;;;;;5.45;0.68;;;;;;;17.47;75.62;102219.56;4945090;28;20045;-80
2021/09/28 10:50:35;;;;;;;2.30;0.60;;;;;;;17.46;69.58;102221.38;4985423;28;20023;-81
2021/09/28 10:53:06;;;;;;;4.93;0.50;;;;;;;17.67;70.30;102221.00;4969108;28;20038;-79
2021/09/28 10:56:01;;;;;;;1.70;0.67;;;;;;;17.99;72.96;102224.84;4973646;28;20065;-81
2021/09/28 10:58:28;;;;;;;8.00;0.82;;;;;;;17.99;75.88;102218.69;4962619;28;20042;-79
2021/09/28 11:00:53;;;;;;;1.98;0.50;;;;;;;18.05;68.94;102216.22;4965460;28;20436;-81
2021/09/28 11:03:44;;;;;;;6.30;0.40;;;;;;;17.84;78.67;102214.00;4958616;28;20100;-81
2021/09/28 11:06:11;;;;;;;3.40;0.40;;;;;;;17.51;79.57;102219.06;4960271;28;20038;-80
2021/09/28 11:08:37;;;;;;;2.85;0.60;;;;;;;17.50;70.79;102220.06;4975525;28;20121;-80
2021/09/28 11:11:06;;;;;;;4.75;0.70;;;;;;;17.76;69.29;102208.59;4975463;28;20038;-78
2021/09/28 11:13:38;;;;;;;6.82;0.60;;;;;;;18.05;68.17;102204.78;4959410;28;20038;-77
2021/09/28 11:16:07;;;;;;;5.10;0.67;;;;;;;18.35;63.82;102213.19;4974663;28;20038;-80